Terminal Aerodrome Forecast
Issued by NWS Green Bay, WI

Home | Current Version | Previous Version | Text Only | Print | Product List | Glossary On
Versions: 1 2 3 4 5 6 7 8 9 10 11 12 13 14 15 16 17 18 19 20 21 22 23 24 25 26 27 28 29 30 31 32 33 34 35 36 37 38 39 40
000
FTUS43 KGRB 251128
TAFGRB
TAF
KGRB 251128Z 2512/2612 15003KT P6SM BKN250
      TEMPO 2512/2513 4SM BR
     FM251300 16006KT P6SM SCT120 BKN250
     FM251800 18010G15KT P6SM SCT035 BKN120
     FM252200 19009KT P6SM SCT035 BKN100
      TEMPO 2522/2601 2SM TSRA OVC025CB
     FM260100 20004KT P6SM SCT035 BKN150
     FM261000 20004KT 5SM BR SCT070 SCT150=

USA.gov is the U.S. government's official web portal to all federal, state and local government web resources and services.